Airfield :
LOGIN :

Register | Disclaimer

   EN    FR    IT 

 










Legend :    VFR   Marginal VFR   IFR   Intensive IFR   Very Intensive IFR
Visi :
Ceiling :
>= 8 km
>= 3000ft
5 to 8 km
1000 to 3000 ft
1500m to 5 km
500 to 1000 ft
800 to 1500m
200 to 500 ft
< 800m
< 200 ft
Symbols :   Thunderstorms  Fog  Heavy snow  Heavy precipitations  Wind > 20 kt
SIGMETs :     Misc.  Thunderstorms  Icing  Turbulence  Mountain Waves  Volcanic Ashes






- Airport Elevation : 390 ft
- IATA code : NQY


EGHQ - Newquay

CURRENT METAR :
  • 080150Z AUTO 26024G34KT 9999 BKN002/// 12/12 Q1004 RERA

EXPIRED METARs :
  • 080120Z AUTO 25025KT 4200 -DZ BKN002/// 12/12 Q1004
  • 080050Z AUTO 24025KT 3100 -DZ BKN003/// 12/12 Q1004
  • 080020Z AUTO 23024G37KT 3800 -DZ BKN004/// 12/12 Q1004
  • 072350Z AUTO 22021KT 4200 RA BKN004/// 12/11 Q1005
  • 072320Z AUTO 21018KT 4900 RA BKN004/// 11/11 Q1006

TAF TAF EGHQ
Valid from the 08 at 00:00 until the 08 at 09:00 UTC


072303Z 0800/0809 22020G32KT 9999 SCT008
BECMG 0800/0803 27022G38KT
TEMPO 0800/0803 6000 RA BKN008
PROB30
TEMPO 0800/0802 3000 +RA BKN004
PROB30
TEMPO 0803/0806 BKN008
TEMPO 0806/0809 6000 SHRA BKN008



MET'MAP, your aeronautical weather chart ! - Copyright ORBIFLY December 2007 - Disclaimer

ORBIFLY MET'MAP TEAM :

Programming & Development : Alexandra Zaïnal
Concept & original design : Baudouin d'Aumeries
Assistance for programming : Marc-Olivier Méhu
Technical & hardware support : Manuel Goepfert

Contact : metmap@orbifly.com




SOURCES & CREDITS :

   NOAA